Time;durP1;ratioP1;P1;durP2;ratioP2;P2;SDS_P1;SDS_P2;PMS_P1;PMS_P2;Temp;Humidity;BMP_temperature;BMP_pressure;BME280_temperature;BME280_humidity;BME280_pressure;Samples;Min_cycle;Max_cycle;Signal;HPM_P1;HPM_P2
2023/03/21 00:00:41;;;;;;;62.60;43.60;;;;;;;8.94;61.61;98986.41;108672;1253;107769;-73
2023/03/21 00:03:20;;;;;;;66.50;44.60;;;;;;;8.97;61.68;98986.58;108782;1253;95637;-75
2023/03/21 00:05:50;;;;;;;70.50;47.10;;;;;;;8.99;61.58;98984.69;108980;1254;95580;-74
2023/03/21 00:08:17;;;;;;;69.10;44.70;;;;;;;9.00;61.64;98981.79;108933;1252;110679;-74
2023/03/21 00:10:44;;;;;;;66.20;45.40;;;;;;;9.00;61.70;98977.90;108894;1253;95864;-74
2023/03/21 00:13:12;;;;;;;70.80;45.90;;;;;;;8.99;61.64;98980.21;108886;1252;96958;-74
2023/03/21 00:15:48;;;;;;;71.00;47.70;;;;;;;8.99;61.77;98979.70;108613;1252;95995;-74
2023/03/21 00:18:31;;;;;;;70.50;47.90;;;;;;;8.99;61.79;98980.60;108960;1253;95597;-74
2023/03/21 00:20:59;;;;;;;72.10;46.70;;;;;;;8.99;61.89;98979.55;108918;1253;96043;-75
2023/03/21 00:23:46;;;;;;;72.90;49.00;;;;;;;9.00;61.90;98975.95;108814;1253;100996;-74
2023/03/21 00:26:14;;;;;;;68.50;47.70;;;;;;;9.01;61.90;98974.30;108899;1253;95997;-73
2023/03/21 00:28:42;;;;;;;70.10;47.30;;;;;;;9.02;62.01;98973.31;108687;1253;95878;-74
2023/03/21 00:31:09;;;;;;;76.10;51.40;;;;;;;9.03;61.94;98974.11;108921;1252;95636;-73
2023/03/21 00:33:37;;;;;;;76.80;52.00;;;;;;;9.04;62.02;98970.49;108919;1253;95617;-78
2023/03/21 00:36:06;;;;;;;72.00;51.10;;;;;;;9.05;62.22;98976.64;108656;1253;100550;-73
2023/03/21 00:38:33;;;;;;;77.10;51.40;;;;;;;9.05;62.13;98973.79;108850;1253;107248;-74
2023/03/21 00:41:04;;;;;;;76.80;52.30;;;;;;;9.06;62.13;98970.94;108855;1252;95650;-74
2023/03/21 00:43:45;;;;;;;74.20;51.60;;;;;;;9.06;62.36;98973.53;108920;1252;95973;-74
2023/03/21 00:46:11;;;;;;;79.20;53.50;;;;;;;9.06;62.38;98970.06;108900;1253;96028;-75
2023/03/21 00:48:38;;;;;;;74.00;49.90;;;;;;;9.06;62.33;98971.66;108904;1252;95936;-74
2023/03/21 00:51:20;;;;;;;74.70;51.20;;;;;;;9.04;62.57;98971.74;108896;1252;95651;-74
2023/03/21 00:53:46;;;;;;;74.90;51.20;;;;;;;9.02;62.66;98971.16;108911;1252;95778;-74
2023/03/21 00:56:13;;;;;;;71.90;52.10;;;;;;;9.02;62.58;98973.51;108973;1252;95674;-74
2023/03/21 00:58:39;;;;;;;73.30;50.30;;;;;;;9.00;62.57;98970.11;108913;1253;95875;-74
2023/03/21 01:01:08;;;;;;;74.60;52.20;;;;;;;8.98;62.63;98970.38;108966;1252;95660;-74
2023/03/21 01:03:41;;;;;;;74.70;52.30;;;;;;;8.97;62.84;98971.34;108895;1253;95885;-73
2023/03/21 01:06:12;;;;;;;;;;;;;;;8.96;62.78;98971.27;108950;1252;95717;-74
2023/03/21 01:08:41;;;;;;;72.20;46.70;;;;;;;8.92;62.98;98969.36;108877;1256;111371;-74
2023/03/21 01:11:22;;;;;;;71.40;50.60;;;;;;;8.92;62.94;98966.92;108844;1254;100879;-74
2023/03/21 01:13:50;;;;;;;75.40;49.80;;;;;;;8.90;62.93;98966.50;108645;1254;107690;-74
2023/03/21 01:16:37;;;;;;;71.00;48.50;;;;;;;8.89;62.97;98964.64;108921;1252;95687;-74
2023/03/21 01:19:06;;;;;;;72.40;47.10;;;;;;;8.89;63.02;98965.66;108681;1253;95692;-73
2023/03/21 01:21:41;;;;;;;69.90;46.70;;;;;;;8.90;62.90;98960.31;108734;1254;110938;-73
2023/03/21 01:24:08;;;;;;;65.60;44.90;;;;;;;8.91;62.91;98960.95;108943;1253;95648;-74
2023/03/21 01:26:36;;;;;;;67.40;45.80;;;;;;;8.91;63.02;98957.09;108899;1253;96035;-73
2023/03/21 01:29:04;;;;;;;69.10;46.80;;;;;;;8.91;63.01;98957.59;108912;1253;95885;-74
2023/03/21 01:31:30;;;;;;;63.50;42.70;;;;;;;8.91;62.90;98956.69;108889;1253;95557;-73
2023/03/21 01:33:57;;;;;;;65.10;44.20;;;;;;;8.90;63.07;98956.55;108925;1252;96030;-74
2023/03/21 01:36:25;;;;;;;65.20;43.40;;;;;;;8.90;63.21;98953.79;108872;1253;95637;-74
2023/03/21 01:38:52;;;;;;;64.70;44.00;;;;;;;8.89;63.21;98950.45;108700;1254;95759;-74
2023/03/21 01:41:27;;;;;;;67.20;45.40;;;;;;;8.89;63.23;98948.86;108873;1254;96240;-74
2023/03/21 01:44:18;;;;;;;68.10;46.90;;;;;;;8.90;63.31;98950.44;108802;1254;95609;-74
2023/03/21 01:46:51;;;;;;;69.70;47.50;;;;;;;8.89;63.34;98950.11;108946;1253;110968;-74
2023/03/21 01:49:44;;;;;;;68.60;45.50;;;;;;;8.87;63.33;98949.17;108649;1254;100929;-74
2023/03/21 01:52:25;;;;;;;74.30;50.00;;;;;;;8.87;63.47;98951.31;108580;1252;107499;-74
2023/03/21 01:55:10;;;;;;;68.70;49.30;;;;;;;8.86;63.59;98952.98;108897;1253;95601;-78
2023/03/21 01:57:46;;;;;;;73.70;51.00;;;;;;;8.85;63.54;98952.52;108679;1253;95635;-73
2023/03/21 02:00:31;;;;;;;77.80;52.70;;;;;;;8.83;63.55;98948.77;108784;1254;111231;-74
2023/03/21 02:03:00;;;;;;;73.00;51.50;;;;;;;8.82;63.48;98946.51;108938;1253;100900;-73
2023/03/21 02:06:02;;;;;;;69.80;48.40;;;;;;;8.82;63.67;98946.19;108663;1254;107274;-74
2023/03/21 02:08:30;;;;;;;70.30;48.90;;;;;;;8.80;63.71;98946.48;108864;1253;95602;-74
2023/03/21 02:11:08;;;;;;;69.00;47.70;;;;;;;8.77;63.74;98942.74;108924;1254;95909;-73
2023/03/21 02:13:35;;;;;;;71.30;48.90;;;;;;;8.77;63.78;98945.98;108755;1252;110761;-73
2023/03/21 02:16:27;;;;;;;72.00;48.10;;;;;;;8.75;63.79;98944.33;108923;1254;95681;-74
2023/03/21 02:19:13;;;;;;;70.50;47.40;;;;;;;8.73;63.87;98945.00;108792;1253;107616;-74
2023/03/21 02:21:55;;;;;;;63.60;44.40;;;;;;;8.71;63.94;98946.91;108703;1253;95627;-74
2023/03/21 02:24:56;;;;;;;64.30;46.00;;;;;;;8.71;63.97;98947.84;108881;1255;95584;-76
2023/03/21 02:27:41;;;;;;;67.30;47.00;;;;;;;8.69;64.02;98944.56;108617;1253;112014;-74
2023/03/21 02:30:37;;;;;;;72.90;49.60;;;;;;;8.69;64.16;98945.45;108892;1254;101018;-74
2023/03/21 02:33:49;;;;;;;66.70;47.70;;;;;;;8.70;64.25;98941.67;108706;1254;107653;-74
2023/03/21 02:36:39;;;;;;;65.60;47.00;;;;;;;8.70;64.14;98944.11;108299;1263;95602;-74
2023/03/21 02:39:14;;;;;;;70.40;47.50;;;;;;;8.71;64.15;98945.13;108789;1254;95646;-76
2023/03/21 02:41:49;;;;;;;68.40;47.60;;;;;;;8.71;64.17;98946.02;108781;1254;111277;-74
2023/03/21 02:44:18;;;;;;;;;;;;;;;8.71;64.20;98947.30;108934;1256;100916;-74
2023/03/21 02:46:50;;;;;;;65.70;44.80;;;;;;;8.69;64.32;98947.95;108862;1253;107673;-73
2023/03/21 02:49:46;;;;;;;68.20;48.30;;;;;;;8.69;64.46;98948.29;108895;1255;95606;-78
2023/03/21 02:52:20;;;;;;;71.00;51.00;;;;;;;8.68;64.32;98947.27;108961;1252;95615;-74
2023/03/21 02:55:12;;;;;;;70.40;50.00;;;;;;;8.67;64.58;98949.84;108843;1254;111226;-73
2023/03/21 02:57:42;;;;;;;74.90;52.90;;;;;;;8.65;64.36;98948.36;108901;1254;101224;-74
2023/03/21 03:00:15;;;;;;;78.60;52.50;;;;;;;8.65;64.63;98944.65;108538;1254;107327;-74
2023/03/21 03:02:44;;;;;;;70.00;50.40;;;;;;;8.65;64.54;98946.75;108559;1254;95653;-74
2023/03/21 03:05:26;;;;;;;75.40;52.10;;;;;;;8.66;64.49;98948.30;108673;1253;95608;-74
2023/03/21 03:08:16;;;;;;;76.10;52.90;;;;;;;8.68;64.51;98948.57;108762;1252;110832;-74
2023/03/21 03:11:11;;;;;;;70.20;49.90;;;;;;;8.68;64.76;98947.86;108924;1254;99582;-73
2023/03/21 03:14:05;;;;;;;75.00;54.00;;;;;;;8.67;64.65;98948.29;108845;1256;107564;-73
2023/03/21 03:17:06;;;;;;;77.10;53.60;;;;;;;8.66;64.84;98947.75;108868;1253;95623;-74
2023/03/21 03:19:51;;;;;;;74.80;53.60;;;;;;;8.66;64.80;98948.11;108914;1252;95631;-74
2023/03/21 03:22:36;;;;;;;75.40;52.00;;;;;;;8.65;64.98;98946.92;108883;1253;109042;-74
2023/03/21 03:25:09;;;;;;;72.50;53.00;;;;;;;8.67;65.29;98953.56;108713;1253;100894;-74
2023/03/21 03:27:57;;;;;;;76.50;53.80;;;;;;;8.67;65.49;98950.38;108718;1253;107631;-74
2023/03/21 03:30:26;;;;;;;79.00;55.10;;;;;;;8.66;65.56;98948.16;108821;1254;95877;-74
2023/03/21 03:33:09;;;;;;;71.90;51.50;;;;;;;8.65;65.29;98951.89;108941;1253;95679;-73
2023/03/21 03:35:36;;;;;;;73.90;55.10;;;;;;;8.66;65.54;98953.63;108868;1254;111281;-74
2023/03/21 03:38:06;;;;;;;71.70;52.60;;;;;;;8.66;65.69;98952.20;108887;1252;95661;-73
2023/03/21 03:40:51;;;;;;;74.40;52.20;;;;;;;8.66;65.65;98952.39;108915;1253;107725;-74
2023/03/21 03:43:25;;;;;;;74.70;51.90;;;;;;;8.66;65.91;98953.10;108571;1260;95704;-73
2023/03/21 03:45:57;;;;;;;;;;;;;;;8.65;65.73;98951.72;108743;1254;95743;-77
2023/03/21 03:48:34;;;;;;;70.30;50.00;;;;;;;8.63;66.03;98949.02;108872;1253;112467;-73
2023/03/21 03:51:07;;;;;;;73.00;51.60;;;;;;;8.62;65.80;98946.60;108705;1254;101000;-73
2023/03/21 03:53:39;;;;;;;73.90;51.30;;;;;;;8.63;66.48;98948.48;108784;1254;107271;-74
2023/03/21 03:56:10;;;;;;;81.00;53.40;;;;;;;8.62;66.35;98945.20;108559;1253;95815;-74
2023/03/21 03:58:38;;;;;;;73.80;51.40;;;;;;;8.61;66.42;98944.74;108676;1252;95728;-74
2023/03/21 04:01:12;;;;;;;74.90;51.30;;;;;;;8.59;66.52;98947.14;108601;1255;111081;-73
2023/03/21 04:03:42;;;;;;;71.90;50.80;;;;;;;8.58;66.32;98947.91;108929;1254;96680;-74
2023/03/21 04:06:18;;;;;;;75.30;52.40;;;;;;;8.57;66.39;98947.81;108682;1254;107651;-74
2023/03/21 04:08:45;;;;;;;73.70;53.30;;;;;;;8.57;66.02;98946.75;108746;1253;95915;-73
2023/03/21 04:11:15;;;;;;;73.80;52.20;;;;;;;8.57;66.11;98944.66;108913;1252;95610;-73
2023/03/21 04:13:41;;;;;;;77.50;54.30;;;;;;;8.57;66.26;98944.67;108924;1253;111097;-74
2023/03/21 04:16:10;;;;;;;76.60;53.90;;;;;;;8.56;66.71;98948.93;108522;1254;96243;-76
2023/03/21 04:18:38;;;;;;;75.70;54.80;;;;;;;8.56;66.45;98947.76;108886;1253;107433;-73
2023/03/21 04:21:12;;;;;;;71.20;52.10;;;;;;;8.54;66.79;98948.94;108633;1254;95862;-73
2023/03/21 04:23:40;;;;;;;75.80;52.00;;;;;;;8.53;66.57;98950.92;108647;1260;95595;-74
2023/03/21 04:26:07;;;;;;;79.20;55.10;;;;;;;8.53;66.66;98955.02;108810;1254;112039;-73
2023/03/21 04:28:35;;;;;;;79.80;54.10;;;;;;;8.52;66.48;98950.96;108866;1253;96002;-74
2023/03/21 04:31:05;;;;;;;72.10;51.10;;;;;;;8.51;66.69;98953.02;108827;1253;107645;-73
2023/03/21 04:33:46;;;;;;;71.00;49.00;;;;;;;8.51;67.59;98952.83;108729;1254;95632;-74
2023/03/21 04:36:25;;;;;;;72.00;50.00;;;;;;;8.51;66.63;98951.98;108695;1259;96048;-73
2023/03/21 04:38:52;;;;;;;73.70;50.90;;;;;;;8.51;67.10;98954.95;108857;1253;111252;-73
2023/03/21 04:41:19;;;;;;;79.00;52.20;;;;;;;8.50;67.42;98955.35;108777;1253;95937;-74
2023/03/21 04:43:46;;;;;;;74.60;51.60;;;;;;;8.47;67.45;98954.96;108631;1253;95839;-75
2023/03/21 04:46:12;;;;;;;76.90;52.00;;;;;;;8.47;67.03;98954.98;108832;1254;96199;-74
2023/03/21 04:48:39;;;;;;;76.00;50.60;;;;;;;8.46;67.18;98955.77;108759;1257;95912;-75
2023/03/21 04:51:05;;;;;;;75.40;49.90;;;;;;;8.46;67.19;98953.08;108823;1254;96080;-75
2023/03/21 04:53:32;;;;;;;73.40;50.00;;;;;;;8.46;67.19;98955.23;108735;1254;107793;-75
2023/03/21 04:56:00;;;;;;;71.70;47.00;;;;;;;8.46;67.20;98955.91;108680;1253;95722;-74
2023/03/21 04:58:27;;;;;;;70.60;46.60;;;;;;;8.47;67.08;98956.59;108653;1254;96493;-74
2023/03/21 05:00:53;;;;;;;74.60;47.20;;;;;;;8.47;67.33;98957.31;108667;1255;96024;-74
2023/03/21 05:03:21;;;;;;;68.90;45.30;;;;;;;8.46;67.20;98957.32;108565;1258;96127;-75
2023/03/21 05:05:48;;;;;;;71.80;47.20;;;;;;;8.46;67.24;98958.20;108659;1254;95876;-73
2023/03/21 05:08:15;;;;;;;72.30;47.00;;;;;;;8.47;67.05;98958.14;108492;1255;96069;-77
2023/03/21 05:10:42;;;;;;;72.10;45.30;;;;;;;8.50;67.04;98955.91;108696;1254;97157;-76
2023/03/21 05:13:08;;;;;;;67.90;45.30;;;;;;;8.51;67.15;98956.90;108835;1253;96151;-74
2023/03/21 05:15:35;;;;;;;67.70;43.70;;;;;;;8.52;67.02;98960.17;108760;1253;106644;-74
2023/03/21 05:18:10;;;;;;;68.10;42.00;;;;;;;8.54;67.00;98956.89;108714;1254;96013;-74
2023/03/21 05:20:42;;;;;;;67.30;44.00;;;;;;;8.54;67.17;98961.62;108747;1254;95631;-74
2023/03/21 05:23:10;;;;;;;64.60;41.70;;;;;;;8.57;67.27;98962.34;108819;1254;111263;-73
2023/03/21 05:25:38;;;;;;;67.00;43.10;;;;;;;8.56;67.20;98963.77;108650;1254;100593;-74
2023/03/21 05:28:07;;;;;;;66.00;41.30;;;;;;;8.57;67.27;98963.73;108782;1253;107581;-74
2023/03/21 05:30:34;;;;;;;69.30;43.80;;;;;;;8.58;67.44;98966.33;108716;1255;95980;-74
2023/03/21 05:33:00;;;;;;;63.10;42.00;;;;;;;8.59;67.44;98968.34;108756;1253;95641;-74
2023/03/21 05:35:27;;;;;;;68.40;44.80;;;;;;;8.61;67.47;98966.81;108772;1254;95572;-75
2023/03/21 05:37:53;;;;;;;66.30;41.00;;;;;;;8.63;67.43;98971.63;108820;1252;95705;-76
2023/03/21 05:40:20;;;;;;;65.90;42.90;;;;;;;8.66;67.56;98970.93;108645;1254;96039;-75
2023/03/21 05:42:48;;;;;;;72.90;42.90;;;;;;;8.67;67.49;98975.29;108687;1253;96630;-75
2023/03/21 05:45:17;;;;;;;64.10;40.10;;;;;;;8.69;67.62;98978.02;108538;1254;112160;-74
2023/03/21 05:47:44;;;;;;;67.20;42.20;;;;;;;8.69;67.49;98984.90;108704;1254;96066;-74
2023/03/21 05:50:12;;;;;;;68.00;43.40;;;;;;;8.69;67.49;98981.18;108578;1254;96101;-75
2023/03/21 05:52:39;;;;;;;68.70;40.20;;;;;;;8.69;67.95;98983.83;108389;1254;95768;-74
2023/03/21 05:55:08;;;;;;;61.40;39.70;;;;;;;8.67;67.71;98982.33;108865;1254;95604;-74
2023/03/21 05:57:38;;;;;;;66.40;41.60;;;;;;;8.67;67.63;98983.55;108920;1253;110845;-74
2023/03/21 06:00:07;;;;;;;63.40;38.40;;;;;;;8.69;67.62;98984.34;108694;1254;101187;-74
2023/03/21 06:02:34;;;;;;;58.30;37.50;;;;;;;8.69;67.80;98989.46;108788;1254;107734;-75
2023/03/21 06:05:05;;;;;;;62.20;38.90;;;;;;;8.68;67.85;98991.12;108459;1254;95898;-74
2023/03/21 06:07:32;;;;;;;68.20;45.40;;;;;;;8.68;67.77;98993.95;108427;1253;95758;-74
2023/03/21 06:10:00;;;;;;;64.80;41.70;;;;;;;8.68;67.78;98988.83;108722;1254;111654;-74
2023/03/21 06:12:27;;;;;;;63.30;41.40;;;;;;;8.68;67.77;98989.90;108679;1254;96954;-75
2023/03/21 06:14:54;;;;;;;62.40;39.50;;;;;;;8.69;67.79;98991.95;108806;1254;95916;-74
2023/03/21 06:17:21;;;;;;;58.20;37.90;;;;;;;8.70;67.81;98992.56;108753;1253;95850;-76
2023/03/21 06:19:48;;;;;;;61.70;41.90;;;;;;;8.72;67.91;98991.96;108758;1254;95639;-76
2023/03/21 06:22:15;;;;;;;62.50;39.70;;;;;;;8.73;67.97;98998.05;108408;1254;95663;-79
2023/03/21 06:24:41;;;;;;;62.10;40.10;;;;;;;8.76;67.93;98997.45;108787;1253;95992;-75
2023/03/21 06:27:11;;;;;;;61.70;40.40;;;;;;;8.82;67.93;98995.52;108398;1254;95873;-75
2023/03/21 06:29:39;;;;;;;59.70;39.70;;;;;;;8.87;68.33;99000.67;108438;1260;96111;-75
2023/03/21 06:32:06;;;;;;;63.20;38.60;;;;;;;8.90;68.13;98999.58;108588;1253;95628;-76
2023/03/21 06:34:35;;;;;;;63.40;42.80;;;;;;;8.91;68.14;99000.05;108813;1253;95950;-74
2023/03/21 06:37:05;;;;;;;68.60;44.00;;;;;;;8.91;68.62;99004.13;108467;1253;107455;-74
2023/03/21 06:39:32;;;;;;;63.50;41.80;;;;;;;8.92;68.50;99005.43;108787;1253;95679;-75
2023/03/21 06:42:00;;;;;;;62.00;39.80;;;;;;;8.96;68.52;99007.69;108648;1254;95594;-74
2023/03/21 06:44:27;;;;;;;62.30;39.40;;;;;;;9.01;68.61;99006.66;108561;1253;95632;-74
2023/03/21 06:46:57;;;;;;;59.50;39.40;;;;;;;9.04;68.95;99008.70;108668;1254;95725;-74
2023/03/21 06:49:23;;;;;;;59.30;40.10;;;;;;;9.06;68.92;99011.05;108655;1254;105577;-74
2023/03/21 06:51:50;;;;;;;56.80;37.80;;;;;;;9.12;68.50;99008.23;108848;1253;95614;-75
2023/03/21 06:54:17;;;;;;;58.60;40.20;;;;;;;9.19;68.50;99006.82;108788;1254;95613;-74
2023/03/21 06:56:45;;;;;;;58.40;40.20;;;;;;;9.26;68.74;99009.71;108891;1254;95880;-75
2023/03/21 06:59:12;;;;;;;59.30;40.10;;;;;;;9.31;68.67;99006.60;108827;1254;95696;-74
2023/03/21 07:01:39;;;;;;;54.30;37.30;;;;;;;9.37;69.02;99004.51;108647;1253;95623;-74
2023/03/21 07:04:05;;;;;;;53.90;35.00;;;;;;;9.42;68.62;99010.60;108689;1254;96132;-74
2023/03/21 07:06:32;;;;;;;55.00;36.20;;;;;;;9.47;68.66;99010.98;108802;1254;95712;-74
2023/03/21 07:08:59;;;;;;;56.20;34.90;;;;;;;9.52;68.80;99011.48;108904;1254;98918;-74
2023/03/21 07:11:26;;;;;;;55.40;37.70;;;;;;;9.60;68.66;99014.66;108670;1254;95735;-74
2023/03/21 07:13:53;;;;;;;53.30;34.50;;;;;;;9.66;68.84;99014.59;108851;1252;95873;-74
2023/03/21 07:16:20;;;;;;;56.80;37.20;;;;;;;9.70;68.64;99017.36;108896;1254;96081;-73
2023/03/21 07:18:47;;;;;;;55.10;37.10;;;;;;;9.72;68.70;99017.21;108597;1253;95633;-74
2023/03/21 07:21:14;;;;;;;59.30;38.00;;;;;;;9.72;68.58;99019.18;108774;1254;95682;-75
2023/03/21 07:23:40;;;;;;;55.40;36.20;;;;;;;9.73;68.82;99024.08;108811;1253;97011;-75
2023/03/21 07:26:09;;;;;;;52.00;34.30;;;;;;;9.75;68.56;99023.23;108604;1254;95646;-75
2023/03/21 07:28:35;;;;;;;51.70;35.10;;;;;;;9.75;68.87;99021.40;108722;1253;111266;-74
2023/03/21 07:31:05;;;;;;;50.50;34.20;;;;;;;9.75;68.56;99021.78;108607;1254;95744;-74
2023/03/21 07:33:32;;;;;;;54.90;36.20;;;;;;;9.80;68.68;99020.52;108754;1253;106116;-75
2023/03/21 07:36:00;;;;;;;52.70;34.30;;;;;;;9.87;68.71;99018.84;108526;1254;95741;-75
2023/03/21 07:38:30;;;;;;;51.10;33.40;;;;;;;9.91;68.63;99020.11;108619;1254;95608;-75
2023/03/21 07:40:59;;;;;;;51.70;33.90;;;;;;;9.97;68.68;99020.05;108715;1253;110262;-75
2023/03/21 07:43:26;;;;;;;48.80;31.90;;;;;;;10.04;68.68;99024.91;108756;1254;100566;-76
2023/03/21 07:45:56;;;;;;;54.20;38.80;;;;;;;10.09;68.67;99022.95;108796;1253;95735;-75
2023/03/21 07:48:23;;;;;;;53.10;33.40;;;;;;;10.17;68.76;99025.23;108614;1253;95740;-76
2023/03/21 07:50:51;;;;;;;49.70;33.40;;;;;;;10.26;68.78;99025.81;108702;1254;95939;-74
2023/03/21 07:53:20;;;;;;;52.70;34.60;;;;;;;10.40;68.90;99025.53;108859;1253;95899;-74
2023/03/21 07:55:55;;;;;;;44.50;29.70;;;;;;;10.49;68.77;99027.23;108874;1253;101027;-74
2023/03/21 07:58:23;;;;;;;45.30;30.30;;;;;;;10.55;68.81;99026.91;108536;1254;107667;-74
2023/03/21 08:00:50;;;;;;;48.50;32.00;;;;;;;10.63;68.79;99026.92;108903;1253;95546;-74
2023/03/21 08:03:18;;;;;;;52.60;35.60;;;;;;;10.68;68.74;99031.16;108872;1253;95585;-75
2023/03/21 08:05:45;;;;;;;51.70;33.40;;;;;;;10.70;68.93;99029.38;108883;1253;95636;-74
2023/03/21 08:08:12;;;;;;;51.30;34.10;;;;;;;10.77;69.04;99027.31;108713;1253;95585;-74
2023/03/21 08:10:41;;;;;;;49.40;32.50;;;;;;;10.84;69.08;99027.67;108785;1253;95605;-74
2023/03/21 08:13:11;;;;;;;47.90;31.30;;;;;;;10.84;68.88;99030.67;108855;1252;95616;-74
2023/03/21 08:15:40;;;;;;;49.40;33.40;;;;;;;10.81;69.12;99031.42;108712;1254;95706;-75
2023/03/21 08:18:10;;;;;;;38.20;25.80;;;;;;;10.74;68.72;99033.38;108843;1253;111273;-74
2023/03/21 08:20:37;;;;;;;35.70;22.60;;;;;;;10.69;68.71;99032.65;108898;1253;100532;-74
2023/03/21 08:25:54;;;;;;;26.80;15.80;;;;;;;10.69;68.75;99034.80;108872;1253;95671;-74
2023/03/21 08:28:22;;;;;;;29.40;17.90;;;;;;;10.75;68.69;99034.53;108674;1253;95693;-74
2023/03/21 08:30:48;;;;;;;30.00;17.00;;;;;;;10.81;68.65;99032.84;108448;1253;111071;-74
2023/03/21 08:33:17;;;;;;;30.20;17.90;;;;;;;10.90;68.60;99035.20;108878;1252;95696;-77
2023/03/21 08:35:44;;;;;;;31.20;18.40;;;;;;;10.98;68.65;99035.65;108669;1253;107314;-74
2023/03/21 08:38:12;;;;;;;27.50;15.70;;;;;;;11.13;68.80;99033.52;108785;1252;95746;-74
2023/03/21 08:40:40;;;;;;;28.70;16.40;;;;;;;11.31;68.83;99030.04;108915;1253;95979;-75
2023/03/21 08:43:06;;;;;;;29.50;18.10;;;;;;;11.48;68.71;99030.53;108884;1254;110824;-74
2023/03/21 08:45:33;;;;;;;25.10;13.80;;;;;;;11.52;68.29;99034.85;108895;1253;96035;-74
2023/03/21 08:48:00;;;;;;;23.10;12.40;;;;;;;11.52;68.22;99031.41;108683;1252;96119;-74
2023/03/21 08:50:28;;;;;;;23.60;12.60;;;;;;;11.57;68.19;99031.04;108678;1253;95684;-75
2023/03/21 08:52:55;;;;;;;25.40;13.80;;;;;;;11.64;68.17;99039.73;108902;1253;95645;-74
2023/03/21 08:55:22;;;;;;;23.60;12.50;;;;;;;11.63;68.02;99042.80;108835;1253;95669;-78
2023/03/21 08:57:48;;;;;;;25.00;12.30;;;;;;;11.63;67.86;99042.88;108354;1253;147625;-74
2023/03/21 09:00:17;;;;;;;21.90;10.40;;;;;;;11.58;67.72;99043.73;108628;1253;95647;-79
2023/03/21 09:02:45;;;;;;;24.40;11.20;;;;;;;11.56;67.71;99047.33;108674;1253;95636;-75
2023/03/21 09:05:15;;;;;;;20.00;10.90;;;;;;;11.57;67.64;99043.84;108832;1253;111325;-74
2023/03/21 09:07:43;;;;;;;20.50;10.20;;;;;;;11.61;67.83;99043.70;108669;1253;101410;-75
2023/03/21 09:10:13;;;;;;;21.70;10.40;;;;;;;11.68;68.00;99040.72;108662;1253;107308;-74
2023/03/21 09:12:49;;;;;;;20.20;9.50;;;;;;;11.83;68.20;99044.38;108855;1252;95629;-74
2023/03/21 09:15:18;;;;;;;20.60;10.80;;;;;;;11.95;67.90;99043.61;108717;1253;95591;-75
2023/03/21 09:17:51;;;;;;;24.00;12.40;;;;;;;12.01;67.88;99045.29;108840;1253;110590;-74
2023/03/21 09:20:20;;;;;;;23.70;14.20;;;;;;;12.01;67.43;99043.69;108663;1253;100583;-74
2023/03/21 09:22:48;;;;;;;26.00;13.80;;;;;;;11.92;67.13;99045.21;108660;1253;107861;-74
2023/03/21 09:25:15;;;;;;;22.30;11.90;;;;;;;11.76;66.45;99046.46;108674;1253;95681;-79
2023/03/21 09:27:44;;;;;;;22.10;11.60;;;;;;;11.74;67.52;99048.38;108711;1253;95638;-74
2023/03/21 09:30:14;;;;;;;24.40;13.00;;;;;;;11.88;67.76;99048.52;108900;1253;110960;-74
2023/03/21 09:32:41;;;;;;;20.90;10.70;;;;;;;11.99;67.61;99050.77;108849;1253;100975;-74
2023/03/21 09:35:10;;;;;;;19.80;10.30;;;;;;;12.02;67.40;99048.91;108769;1253;95619;-74
2023/03/21 09:37:40;;;;;;;22.00;10.60;;;;;;;12.07;67.56;99049.43;108524;1256;95690;-74
2023/03/21 09:40:38;;;;;;;22.00;10.50;;;;;;;12.14;67.20;99052.40;108899;1253;95638;-74
2023/03/21 09:43:37;;;;;;;21.80;10.20;;;;;;;12.13;66.60;99053.04;108841;1253;111070;-74
2023/03/21 09:46:39;;;;;;;24.40;12.10;;;;;;;12.10;66.08;99057.34;108773;1254;100625;-74
2023/03/21 09:49:14;;;;;;;32.40;18.60;;;;;;;12.05;66.09;99057.59;108626;1252;105694;-74
2023/03/21 09:51:47;;;;;;;27.00;15.30;;;;;;;12.05;66.43;99058.82;108701;1252;95588;-74
2023/03/21 09:54:32;;;;;;;25.40;13.70;;;;;;;11.99;65.98;99056.27;108762;1253;95678;-75
2023/03/21 09:57:06;;;;;;;22.40;11.80;;;;;;;11.98;66.63;99056.34;108681;1253;111337;-74
2023/03/21 09:59:38;;;;;;;21.60;11.30;;;;;;;11.97;66.50;99052.29;108691;1253;100506;-74
2023/03/21 10:02:39;;;;;;;22.90;12.00;;;;;;;11.93;66.03;99053.16;108596;1254;107719;-74
2023/03/21 10:05:22;;;;;;;28.00;16.70;;;;;;;11.88;66.71;99049.07;108883;1254;95588;-74
2023/03/21 10:07:59;;;;;;;28.00;16.00;;;;;;;11.91;66.72;99050.65;108803;1252;95622;-75
2023/03/21 10:10:31;;;;;;;25.30;13.50;;;;;;;11.91;66.02;99057.76;108796;1254;110939;-74
2023/03/21 10:12:58;;;;;;;25.80;13.10;;;;;;;11.84;66.17;99054.91;108711;1252;100620;-74
2023/03/21 10:15:26;;;;;;;23.10;12.90;;;;;;;11.86;66.17;99054.60;108744;1253;95614;-74
2023/03/21 10:18:02;;;;;;;24.80;12.50;;;;;;;11.93;66.26;99050.80;108838;1253;95624;-74
2023/03/21 10:20:32;;;;;;;22.10;11.40;;;;;;;12.00;66.46;99049.40;108640;1253;95641;-74
2023/03/21 10:23:02;;;;;;;24.10;12.70;;;;;;;12.06;66.02;99049.84;108666;1254;111395;-74
2023/03/21 10:25:36;;;;;;;24.40;12.90;;;;;;;12.10;66.10;99052.40;108534;1253;100520;-75
2023/03/21 10:28:06;;;;;;;21.50;11.40;;;;;;;12.14;66.12;99047.24;108857;1253;107749;-75
2023/03/21 10:31:04;;;;;;;23.50;12.50;;;;;;;12.23;66.39;99046.20;108826;1253;95563;-74
2023/03/21 10:33:38;;;;;;;24.20;13.00;;;;;;;12.37;65.93;99047.75;108863;1252;95993;-74
2023/03/21 10:36:07;;;;;;;;;;;;;;;12.47;66.12;99045.20;108704;1252;111201;-74
2023/03/21 10:38:36;;;;;;;20.40;10.00;;;;;;;12.56;65.82;99040.56;108709;1253;100844;-75
2023/03/21 10:41:03;;;;;;;20.50;10.10;;;;;;;12.65;65.51;99045.86;108685;1253;106754;-74
2023/03/21 10:43:36;;;;;;;21.40;10.10;;;;;;;12.70;65.56;99042.94;108682;1253;95643;-74
2023/03/21 10:46:13;;;;;;;21.50;10.70;;;;;;;12.85;65.47;99043.52;108568;1253;95661;-74
2023/03/21 10:48:45;;;;;;;21.00;11.10;;;;;;;12.98;65.87;99037.82;108696;1253;111275;-74
2023/03/21 10:51:19;;;;;;;21.40;10.40;;;;;;;13.08;65.87;99039.33;108521;1252;100931;-74
2023/03/21 10:54:07;;;;;;;21.50;10.70;;;;;;;12.95;64.89;99037.52;108689;1256;107191;-74
2023/03/21 10:56:39;;;;;;;22.70;11.50;;;;;;;12.61;65.30;99038.17;108677;1253;95569;-75
2023/03/21 10:59:15;;;;;;;23.70;12.10;;;;;;;12.41;65.55;99039.81;108883;1253;95628;-74
2023/03/21 11:01:45;;;;;;;22.90;11.10;;;;;;;12.23;65.26;99038.61;108911;1253;110264;-74
2023/03/21 11:04:19;;;;;;;21.80;10.50;;;;;;;11.97;65.05;99041.29;108896;1253;100987;-74
2023/03/21 11:06:58;;;;;;;24.60;11.70;;;;;;;11.77;65.22;99042.11;108823;1253;107355;-74
2023/03/21 11:10:01;;;;;;;21.20;10.80;;;;;;;11.62;65.60;99042.95;108797;1253;95566;-74
2023/03/21 11:12:39;;;;;;;27.00;14.80;;;;;;;11.52;65.66;99046.17;108944;1253;95664;-74
2023/03/21 11:15:29;;;;;;;24.20;11.90;;;;;;;11.42;65.63;99048.38;108754;1252;109779;-74
2023/03/21 11:17:58;;;;;;;30.80;16.60;;;;;;;11.30;65.67;99050.54;108851;1253;100846;-74
2023/03/21 11:20:29;;;;;;;34.70;20.30;;;;;;;11.21;65.78;99054.92;108868;1253;107667;-74
2023/03/21 11:22:56;;;;;;;29.30;15.80;;;;;;;11.10;65.73;99053.23;108654;1252;95606;-74
2023/03/21 11:25:30;;;;;;;25.90;12.90;;;;;;;11.04;65.93;99051.94;108898;1253;95587;-74
2023/03/21 11:27:58;;;;;;;24.70;11.50;;;;;;;10.97;66.04;99048.86;108842;1253;111354;-74
2023/03/21 11:30:27;;;;;;;22.00;10.90;;;;;;;10.95;65.99;99047.92;108903;1253;99839;-74
2023/03/21 11:32:59;;;;;;;23.50;13.90;;;;;;;11.01;66.11;99046.47;108821;1252;107571;-76
2023/03/21 11:35:38;;;;;;;23.50;12.40;;;;;;;11.15;66.11;99041.52;108539;1253;95618;-74
2023/03/21 11:38:22;;;;;;;25.30;12.70;;;;;;;11.35;66.32;99037.72;108750;1253;95630;-74